createdAt,value
2023-04-22T00:01:06.772Z,13.52
2023-04-22T00:03:33.909Z,12.80
2023-04-22T00:06:01.102Z,14.10
2023-04-22T00:08:27.982Z,13.43
2023-04-22T00:10:54.781Z,13.43
2023-04-22T00:13:21.633Z,13.55
2023-04-22T00:15:48.637Z,14.15
2023-04-22T00:18:16.124Z,14.15
2023-04-22T00:20:44.203Z,14.20
2023-04-22T00:23:11.858Z,13.63
2023-04-22T00:25:40.209Z,12.70
2023-04-22T00:28:07.153Z,13.80
2023-04-22T00:30:34.998Z,14.40
2023-04-22T00:33:01.962Z,13.38
2023-04-22T00:35:29.633Z,13.83
2023-04-22T00:37:57.209Z,14.07
2023-04-22T00:40:24.020Z,12.93
2023-04-22T00:42:51.393Z,13.07
2023-04-22T00:45:19.639Z,13.70
2023-04-22T00:47:47.564Z,13.63
2023-04-22T00:50:15.651Z,13.05
2023-04-22T00:52:42.509Z,13.07
2023-04-22T00:55:10.036Z,13.65
2023-04-22T00:57:38.185Z,13.60
2023-04-22T01:00:06.933Z,13.17
2023-04-22T01:02:34.071Z,13.18
2023-04-22T01:05:01.810Z,14.20
2023-04-22T01:07:28.966Z,14.27
2023-04-22T01:09:56.660Z,14.88
2023-04-22T01:12:23.531Z,14.27
2023-04-22T01:14:50.566Z,13.65
2023-04-22T01:17:19.452Z,12.50
2023-04-22T01:19:47.595Z,12.90
2023-04-22T01:22:15.404Z,13.38
2023-04-22T01:24:42.811Z,13.00
2023-04-22T01:27:09.770Z,12.68
2023-04-22T01:29:38.783Z,12.68
2023-04-22T01:32:06.476Z,13.02
2023-04-22T01:34:33.758Z,13.35
2023-04-22T01:37:00.667Z,12.40
2023-04-22T01:39:27.750Z,14.52
2023-04-22T01:41:56.750Z,13.50
2023-04-22T01:44:23.669Z,13.40
2023-04-22T01:46:50.942Z,13.02
2023-04-22T01:49:17.894Z,14.67
2023-04-22T01:51:44.719Z,15.07
2023-04-22T01:54:13.004Z,14.65
2023-04-22T01:56:40.646Z,13.80
2023-04-22T01:59:08.022Z,14.50
2023-04-22T02:01:36.704Z,14.47
2023-04-22T02:04:06.536Z,14.52
2023-04-22T02:06:33.352Z,14.50
2023-04-22T02:09:00.273Z,13.75
2023-04-22T02:11:27.295Z,15.07
2023-04-22T02:13:54.149Z,14.53
2023-04-22T02:16:21.341Z,14.57
2023-04-22T02:18:49.011Z,15.50
2023-04-22T02:21:15.967Z,14.90
2023-04-22T02:23:42.816Z,15.65
2023-04-22T02:26:10.865Z,15.53
2023-04-22T02:28:37.684Z,15.05
2023-04-22T02:31:04.606Z,16.50
2023-04-22T02:33:31.482Z,15.00
2023-04-22T02:35:58.372Z,15.38
2023-04-22T02:38:25.174Z,15.73
2023-04-22T02:40:51.976Z,15.30
2023-04-22T02:43:19.083Z,15.07
2023-04-22T02:45:45.942Z,15.50
2023-04-22T02:48:13.258Z,14.65
2023-04-22T02:50:40.562Z,14.73
2023-04-22T02:53:09.022Z,15.73
2023-04-22T02:55:35.920Z,15.00
2023-04-22T02:58:02.977Z,14.85
2023-04-22T03:00:29.997Z,14.48
2023-04-22T03:02:57.096Z,15.00
2023-04-22T03:05:30.644Z,15.05
2023-04-22T03:07:57.598Z,15.13
2023-04-22T03:10:24.401Z,16.48
2023-04-22T03:12:51.170Z,16.27
2023-04-22T03:15:21.100Z,15.73
2023-04-22T03:17:48.437Z,15.35
2023-04-22T03:20:16.652Z,15.55
2023-04-22T03:22:43.536Z,15.13
2023-04-22T03:25:12.413Z,15.15
2023-04-22T03:27:39.576Z,15.60
2023-04-22T03:30:07.283Z,15.55
2023-04-22T03:32:34.243Z,15.85
2023-04-22T03:35:24.221Z,14.52
2023-04-22T03:37:52.235Z,15.40
2023-04-22T03:40:24.635Z,15.70
2023-04-22T03:42:51.605Z,15.25
2023-04-22T03:45:20.929Z,15.15
2023-04-22T03:47:55.822Z,16.17
2023-04-22T03:50:29.411Z,15.55
2023-04-22T03:52:57.515Z,15.63
2023-04-22T03:55:24.358Z,15.45
2023-04-22T03:57:53.061Z,16.40
2023-04-22T04:00:20.608Z,15.07
2023-04-22T04:02:55.255Z,15.77
2023-04-22T04:05:42.205Z,16.27
2023-04-22T04:08:09.226Z,15.45
2023-04-22T04:10:37.209Z,15.88
2023-04-22T04:13:04.803Z,15.95
2023-04-22T04:15:39.494Z,16.10
2023-04-22T04:18:07.189Z,16.23
2023-04-22T04:20:34.006Z,15.90
2023-04-22T04:23:00.863Z,15.80
2023-04-22T04:25:29.455Z,16.45
2023-04-22T04:27:56.697Z,16.02
2023-04-22T04:30:23.844Z,15.63
2023-04-22T04:32:54.350Z,15.52
2023-04-22T04:35:21.467Z,17.45
2023-04-22T04:37:53.815Z,17.27
2023-04-22T04:40:21.933Z,16.42
2023-04-22T04:43:08.729Z,15.47
2023-04-22T04:45:53.585Z,15.57
2023-04-22T04:48:27.223Z,16.38
2023-04-22T04:51:00.138Z,16.65
2023-04-22T04:53:30.287Z,17.02
2023-04-22T04:55:57.150Z,17.20
2023-04-22T04:58:26.898Z,17.35
2023-04-22T05:01:21.615Z,16.80
2023-04-22T05:03:49.145Z,17.13
2023-04-22T05:06:18.345Z,17.20
2023-04-22T05:09:04.848Z,16.10
2023-04-22T05:11:31.792Z,16.92
2023-04-22T05:14:01.109Z,16.40
2023-04-22T05:16:34.966Z,16.90
2023-04-22T05:19:02.428Z,16.85
2023-04-22T05:21:29.417Z,17.27
2023-04-22T05:23:56.633Z,17.58
2023-04-22T05:26:24.191Z,17.77
2023-04-22T05:28:51.307Z,17.85
2023-04-22T05:31:19.147Z,18.17
2023-04-22T05:33:46.936Z,18.00
2023-04-22T05:36:18.152Z,18.25
2023-04-22T05:38:47.221Z,17.77
2023-04-22T05:41:15.116Z,17.77
2023-04-22T05:43:42.127Z,18.50
2023-04-22T05:46:15.162Z,18.70
2023-04-22T05:48:43.553Z,18.65
2023-04-22T05:51:24.726Z,18.00
2023-04-22T05:53:51.556Z,17.75
2023-04-22T05:56:19.404Z,17.77
2023-04-22T05:58:46.267Z,17.83
2023-04-22T06:01:17.538Z,18.25
2023-04-22T06:03:58.845Z,17.98
2023-04-22T06:06:27.444Z,17.75
2023-04-22T06:08:54.335Z,17.23
2023-04-22T06:11:22.070Z,17.40
2023-04-22T06:13:48.923Z,16.67
2023-04-22T06:16:16.342Z,16.42
2023-04-22T06:18:45.855Z,16.23
2023-04-22T06:21:12.778Z,16.38
2023-04-22T06:23:39.982Z,16.60
2023-04-22T06:26:06.878Z,15.73
2023-04-22T06:28:35.574Z,15.68
2023-04-22T06:31:07.093Z,16.13
2023-04-22T06:33:34.326Z,16.02
2023-04-22T06:36:02.450Z,15.40
2023-04-22T06:38:31.079Z,15.18
2023-04-22T06:41:17.522Z,15.65
2023-04-22T06:43:49.694Z,15.25
2023-04-22T06:46:38.184Z,15.70
2023-04-22T06:49:25.756Z,15.70
2023-04-22T06:51:52.670Z,15.85
2023-04-22T06:54:19.577Z,15.20
2023-04-22T06:56:46.652Z,16.02
2023-04-22T06:59:13.633Z,15.90
2023-04-22T07:01:40.881Z,15.37
2023-04-22T07:04:07.760Z,15.82
2023-04-22T07:06:35.092Z,15.02
2023-04-22T07:09:02.486Z,15.73
2023-04-22T07:11:31.480Z,14.93
2023-04-22T07:14:02.977Z,14.70
2023-04-22T07:16:29.842Z,14.68
2023-04-22T07:18:57.309Z,14.73
2023-04-22T07:21:28.582Z,15.50
2023-04-22T07:24:01.920Z,15.10
2023-04-22T07:26:29.105Z,14.23
2023-04-22T07:28:55.843Z,14.43
2023-04-22T07:31:22.759Z,13.90
2023-04-22T07:33:49.633Z,13.90
2023-04-22T07:36:16.377Z,13.02
2023-04-22T07:38:43.253Z,13.73
2023-04-22T07:41:10.090Z,13.65
2023-04-22T07:43:37.002Z,14.05
2023-04-22T07:46:04.124Z,13.10
2023-04-22T07:48:31.118Z,12.75
2023-04-22T07:50:57.900Z,12.53
2023-04-22T07:53:24.674Z,12.13
2023-04-22T07:55:51.704Z,10.85
2023-04-22T07:58:18.622Z,11.57
2023-04-22T08:00:45.497Z,11.27
2023-04-22T08:03:14.147Z,10.90
2023-04-22T08:05:41.192Z,11.30
2023-04-22T08:08:08.597Z,11.15
2023-04-22T08:10:35.421Z,11.48
2023-04-22T08:13:02.215Z,10.55
2023-04-22T08:15:29.195Z,10.83
2023-04-22T08:17:56.122Z,10.30
2023-04-22T08:20:23.128Z,9.77
2023-04-22T08:22:51.551Z,9.20
2023-04-22T08:25:18.465Z,9.93
2023-04-22T08:27:45.255Z,9.43
2023-04-22T08:30:12.358Z,8.80
2023-04-22T08:32:39.252Z,8.02
2023-04-22T08:35:06.659Z,7.30
2023-04-22T08:37:34.739Z,8.10
2023-04-22T08:40:02.179Z,8.13
2023-04-22T08:42:30.694Z,7.88
2023-04-22T08:44:58.469Z,7.90
2023-04-22T08:47:26.503Z,7.90
2023-04-22T08:49:56.308Z,8.02
2023-04-22T08:52:23.173Z,8.00
2023-04-22T08:54:50.065Z,7.90
2023-04-22T08:57:18.760Z,8.13
2023-04-22T08:59:46.527Z,8.25
2023-04-22T09:02:19.321Z,7.70
2023-04-22T09:04:50.867Z,7.40
2023-04-22T09:07:25.665Z,7.20
2023-04-22T09:09:55.166Z,7.03
2023-04-22T09:12:22.911Z,7.35
2023-04-22T09:14:49.781Z,7.07
2023-04-22T09:17:18.783Z,7.20
2023-04-22T09:19:46.125Z,6.97
2023-04-22T09:22:16.182Z,6.80
2023-04-22T09:24:52.100Z,7.05
2023-04-22T09:27:21.148Z,7.30
2023-04-22T09:29:49.990Z,7.23
2023-04-22T09:32:17.629Z,7.30
2023-04-22T09:34:52.764Z,6.93
2023-04-22T09:37:36.093Z,7.35
2023-04-22T09:40:06.343Z,7.35
2023-04-22T09:42:51.494Z,7.13
2023-04-22T09:45:29.053Z,6.60
2023-04-22T09:47:57.581Z,7.05
2023-04-22T09:50:26.812Z,7.30
2023-04-22T09:53:01.896Z,6.50
2023-04-22T09:55:30.937Z,6.77
2023-04-22T09:57:58.264Z,6.95
2023-04-22T10:00:29.444Z,6.60
2023-04-22T10:02:56.514Z,6.70
2023-04-22T10:05:24.199Z,7.05
2023-04-22T10:07:51.594Z,6.90
2023-04-22T10:10:18.520Z,6.35
2023-04-22T10:12:48.477Z,6.60
2023-04-22T10:15:15.403Z,6.80
2023-04-22T10:17:44.385Z,7.25
2023-04-22T10:20:16.304Z,6.90
2023-04-22T10:22:43.634Z,7.03
2023-04-22T10:25:28.853Z,7.03
2023-04-22T10:28:06.757Z,6.50
2023-04-22T10:30:37.480Z,6.88
2023-04-22T10:33:28.567Z,7.33
2023-04-22T10:36:18.136Z,8.15
2023-04-22T10:38:50.778Z,7.60
2023-04-22T10:41:43.154Z,7.70
2023-04-22T10:44:09.949Z,8.02
2023-04-22T10:46:45.309Z,8.27
2023-04-22T10:49:15.579Z,8.32
2023-04-22T10:51:51.069Z,8.88
2023-04-22T10:54:50.374Z,8.65
2023-04-22T10:57:22.703Z,8.55
2023-04-22T10:59:53.430Z,8.67
2023-04-22T11:02:21.858Z,9.13
2023-04-22T11:04:50.026Z,9.35
2023-04-22T11:07:30.642Z,9.45
2023-04-22T11:10:15.724Z,9.98
2023-04-22T11:12:43.752Z,9.77
2023-04-22T11:15:16.334Z,9.57
2023-04-22T11:17:47.488Z,10.55
2023-04-22T11:20:18.477Z,9.85
2023-04-22T11:22:51.365Z,10.30
2023-04-22T11:25:18.747Z,10.07
2023-04-22T11:27:46.153Z,10.93
2023-04-22T11:30:19.461Z,10.13
2023-04-22T11:32:54.536Z,9.93
2023-04-22T11:35:28.614Z,9.70
2023-04-22T11:38:06.449Z,9.93
2023-04-22T11:40:39.425Z,10.70
2023-04-22T11:43:09.364Z,11.05
2023-04-22T11:45:37.742Z,10.93
2023-04-22T11:48:06.867Z,9.70
2023-04-22T11:50:37.288Z,10.73
2023-04-22T11:53:04.940Z,11.57
2023-04-22T11:55:38.298Z,11.32
2023-04-22T11:58:14.723Z,11.73
2023-04-22T12:00:46.949Z,11.35
2023-04-22T12:03:19.482Z,11.93
2023-04-22T12:05:52.199Z,11.70
2023-04-22T12:08:21.517Z,11.95
2023-04-22T12:10:55.927Z,10.75
2023-04-22T12:13:25.702Z,11.27
2023-04-22T12:16:01.133Z,11.80
2023-04-22T12:18:33.877Z,11.63
2023-04-22T12:21:04.446Z,11.98
2023-04-22T12:23:41.182Z,12.55
2023-04-22T12:26:08.036Z,11.75
2023-04-22T12:28:34.834Z,13.60
2023-04-22T12:31:01.682Z,12.93
2023-04-22T12:33:28.520Z,12.32
2023-04-22T12:35:55.467Z,13.13
2023-04-22T12:38:22.280Z,13.07
2023-04-22T12:40:49.257Z,12.87
2023-04-22T12:43:16.138Z,12.48
2023-04-22T12:45:43.043Z,13.35
2023-04-22T12:48:10.264Z,13.00
2023-04-22T12:50:37.146Z,13.38
2023-04-22T12:53:04.085Z,12.23
2023-04-22T12:55:30.873Z,12.77
2023-04-22T12:57:57.766Z,14.65
2023-04-22T13:00:25.438Z,14.43
2023-04-22T13:02:52.726Z,15.60
2023-04-22T13:05:20.236Z,14.83
2023-04-22T13:07:56.300Z,14.85
2023-04-22T13:10:30.766Z,14.57
2023-04-22T13:13:06.433Z,14.75
2023-04-22T13:15:43.552Z,14.38
2023-04-22T13:18:10.484Z,14.67
2023-04-22T13:20:37.393Z,14.93
2023-04-22T13:23:04.808Z,14.52
2023-04-22T13:25:32.032Z,15.45
2023-04-22T13:27:58.935Z,14.57
2023-04-22T13:30:25.876Z,15.60
2023-04-22T13:32:52.828Z,15.98
2023-04-22T13:35:19.737Z,15.90
2023-04-22T13:37:47.161Z,15.35
2023-04-22T13:40:14.034Z,15.05
2023-04-22T13:42:41.086Z,15.47
2023-04-22T13:45:08.555Z,16.27
2023-04-22T13:47:35.500Z,15.98
2023-04-22T13:50:02.495Z,15.82
2023-04-22T13:52:29.462Z,16.92
2023-04-22T13:54:56.545Z,18.53
2023-04-22T13:57:23.468Z,18.80
2023-04-22T13:59:50.641Z,18.77
2023-04-22T14:02:17.942Z,18.73
2023-04-22T14:04:44.870Z,19.80
2023-04-22T14:07:12.589Z,18.40
2023-04-22T14:09:39.669Z,18.95
2023-04-22T14:12:07.820Z,18.13
2023-04-22T14:14:34.958Z,19.02
2023-04-22T14:17:01.944Z,19.52
2023-04-22T14:19:30.568Z,18.87
2023-04-22T14:21:57.975Z,19.58
2023-04-22T14:24:25.206Z,18.45
2023-04-22T14:26:52.782Z,18.85
2023-04-22T14:29:20.094Z,19.30
2023-04-22T14:31:47.007Z,18.23
2023-04-22T14:34:13.842Z,20.35
2023-04-22T14:36:40.859Z,19.73
2023-04-22T14:39:07.729Z,19.08
2023-04-22T14:41:34.959Z,19.48
2023-04-22T14:44:01.872Z,19.63
2023-04-22T14:46:29.924Z,19.02
2023-04-22T14:48:57.022Z,19.63
2023-04-22T14:51:23.879Z,19.40
2023-04-22T14:53:51.487Z,19.73
2023-04-22T14:56:18.707Z,20.07
2023-04-22T14:58:45.809Z,20.58
2023-04-22T15:01:12.666Z,21.23
2023-04-22T15:03:39.913Z,22.00
2023-04-22T15:06:07.185Z,21.70
2023-04-22T15:08:33.983Z,21.47
2023-04-22T15:11:00.952Z,21.45
2023-04-22T15:13:27.837Z,20.60
2023-04-22T15:15:54.775Z,20.83
2023-04-22T15:18:21.689Z,20.63
2023-04-22T15:20:48.636Z,22.50
2023-04-22T15:23:15.693Z,21.95
2023-04-22T15:25:42.668Z,21.52
2023-04-22T15:28:09.496Z,20.25
2023-04-22T15:30:36.411Z,22.10
2023-04-22T15:33:05.036Z,19.93
2023-04-22T15:35:32.139Z,19.60
2023-04-22T15:37:59.033Z,19.00
2023-04-22T15:40:25.886Z,21.42
2023-04-22T15:42:52.670Z,22.25
2023-04-22T15:45:20.073Z,21.40
2023-04-22T15:47:47.112Z,19.80
2023-04-22T15:50:13.992Z,19.15
2023-04-22T15:52:40.968Z,18.80
2023-04-22T15:55:08.307Z,18.50
2023-04-22T15:57:35.788Z,18.70
2023-04-22T16:00:11.669Z,19.90
2023-04-22T16:02:44.200Z,20.17
2023-04-22T16:05:11.953Z,19.70
2023-04-22T16:07:39.385Z,20.60
2023-04-22T16:10:07.068Z,19.67
2023-04-22T16:12:34.569Z,19.75
2023-04-22T16:15:02.046Z,18.55
2023-04-22T16:17:29.904Z,19.70
2023-04-22T16:19:56.793Z,19.40
2023-04-22T16:22:23.671Z,17.30
2023-04-22T16:24:51.346Z,16.17
2023-04-22T16:27:19.168Z,16.45
2023-04-22T16:29:46.402Z,16.63
2023-04-22T16:32:13.469Z,17.05
2023-04-22T16:34:40.326Z,17.43
2023-04-22T16:37:08.579Z,17.52
2023-04-22T16:39:35.480Z,17.85
2023-04-22T16:42:03.128Z,18.00
2023-04-22T16:44:30.372Z,17.25
2023-04-22T16:46:57.285Z,18.70
2023-04-22T16:49:24.171Z,18.08
2023-04-22T16:51:51.412Z,18.05
2023-04-22T16:54:18.246Z,18.88
2023-04-22T16:56:45.208Z,19.65
2023-04-22T16:59:12.110Z,19.60
2023-04-22T17:01:40.926Z,19.90
2023-04-22T17:04:08.758Z,19.42
2023-04-22T17:06:37.591Z,18.77
2023-04-22T17:09:06.444Z,19.25
2023-04-22T17:11:33.563Z,18.13
2023-04-22T17:14:00.468Z,17.70
2023-04-22T17:16:27.336Z,18.58
2023-04-22T17:18:54.205Z,19.42
2023-04-22T17:21:23.226Z,19.52
2023-04-22T17:23:50.596Z,18.57
2023-04-22T17:26:17.589Z,19.77
2023-04-22T17:28:44.469Z,20.65
2023-04-22T17:31:11.813Z,20.45
2023-04-22T17:33:40.077Z,20.38
2023-04-22T17:36:07.263Z,20.23
2023-04-22T17:38:34.671Z,19.92
2023-04-22T17:41:01.637Z,19.95
2023-04-22T17:43:28.419Z,18.77
2023-04-22T17:45:55.485Z,19.35
2023-04-22T17:48:22.785Z,19.40
2023-04-22T17:50:49.670Z,18.95
2023-04-22T17:53:16.928Z,19.58
2023-04-22T17:55:43.724Z,19.98
2023-04-22T17:58:10.830Z,19.70
2023-04-22T18:00:37.963Z,19.53
2023-04-22T18:03:05.900Z,21.60
2023-04-22T18:05:32.847Z,19.73
2023-04-22T18:08:03.027Z,19.75
2023-04-22T18:10:30.976Z,19.85
2023-04-22T18:12:58.103Z,19.90
2023-04-22T18:15:24.995Z,20.08
2023-04-22T18:17:52.047Z,19.45
2023-04-22T18:20:19.765Z,20.00
2023-04-22T18:22:48.837Z,20.33
2023-04-22T18:25:16.376Z,21.07
2023-04-22T18:27:43.806Z,19.17
2023-04-22T18:30:11.199Z,19.50
2023-04-22T18:32:38.631Z,21.05
2023-04-22T18:35:06.199Z,21.20
2023-04-22T18:37:34.452Z,21.17
2023-04-22T18:40:01.869Z,21.52
2023-04-22T18:42:28.989Z,22.17
2023-04-22T18:44:55.995Z,21.75
2023-04-22T18:47:23.074Z,21.05
2023-04-22T18:49:51.277Z,21.63
2023-04-22T18:52:18.471Z,21.75
2023-04-22T18:54:45.507Z,21.63
2023-04-22T18:57:12.432Z,21.48
2023-04-22T18:59:39.637Z,21.70
2023-04-22T19:02:06.788Z,21.27
2023-04-22T19:04:33.891Z,22.10
2023-04-22T19:07:00.929Z,22.88
2023-04-22T19:09:27.860Z,23.17
2023-04-22T19:11:55.316Z,23.60
2023-04-22T19:14:22.133Z,23.33
2023-04-22T19:16:49.109Z,22.58
2023-04-22T19:19:16.188Z,24.02
2023-04-22T19:21:43.587Z,23.15
2023-04-22T19:24:10.830Z,24.08
2023-04-22T19:26:37.782Z,24.03
2023-04-22T19:29:04.600Z,24.00
2023-04-22T19:31:31.494Z,23.60
2023-04-22T19:33:59.207Z,24.17
2023-04-22T19:36:36.929Z,24.05
2023-04-22T19:39:06.115Z,23.37
2023-04-22T19:41:34.109Z,24.05
2023-04-22T19:44:01.564Z,24.75
2023-04-22T19:46:28.464Z,23.73
2023-04-22T19:48:55.404Z,25.02
2023-04-22T19:51:22.931Z,24.77
2023-04-22T19:53:50.559Z,24.58
2023-04-22T19:56:18.063Z,25.25
2023-04-22T19:58:45.239Z,27.52
2023-04-22T20:01:12.319Z,28.15
2023-04-22T20:03:39.712Z,29.23
2023-04-22T20:06:07.286Z,28.23
2023-04-22T20:08:34.546Z,27.83
2023-04-22T20:11:01.727Z,28.60
2023-04-22T20:13:29.035Z,28.70
2023-04-22T20:15:56.094Z,28.33
2023-04-22T20:18:23.052Z,29.55
2023-04-22T20:20:52.175Z,29.65
2023-04-22T20:23:22.444Z,30.50
2023-04-22T20:25:50.978Z,31.10
2023-04-22T20:28:18.055Z,29.93
2023-04-22T20:30:45.050Z,30.42
2023-04-22T20:33:12.199Z,33.25
2023-04-22T20:35:40.371Z,31.65
2023-04-22T20:38:09.183Z,31.88
2023-04-22T20:40:36.220Z,32.43
2023-04-22T20:43:03.411Z,32.08
2023-04-22T20:45:30.517Z,32.67
2023-04-22T20:47:58.270Z,34.15
2023-04-22T20:50:26.500Z,34.55
2023-04-22T20:52:53.317Z,34.47
2023-04-22T20:55:20.190Z,33.15
2023-04-22T20:57:47.104Z,33.28
2023-04-22T21:00:14.627Z,32.90
2023-04-22T21:02:42.381Z,35.33
2023-04-22T21:05:11.314Z,31.70
2023-04-22T21:07:39.867Z,34.25
2023-04-22T21:10:07.534Z,34.05
2023-04-22T21:12:34.807Z,35.05
2023-04-22T21:15:01.881Z,34.25
2023-04-22T21:17:31.667Z,34.80
2023-04-22T21:19:59.520Z,34.55
2023-04-22T21:22:26.860Z,32.45
2023-04-22T21:24:54.574Z,34.10
2023-04-22T21:27:22.634Z,28.23
2023-04-22T21:29:50.202Z,33.93
2023-04-22T21:32:17.759Z,34.22
2023-04-22T21:34:45.321Z,30.63
2023-04-22T21:37:12.630Z,33.30
2023-04-22T21:39:40.415Z,32.33
2023-04-22T21:42:10.581Z,33.13
2023-04-22T21:44:38.329Z,31.10
2023-04-22T21:47:05.880Z,27.52
2023-04-22T21:49:33.025Z,30.90
2023-04-22T21:51:59.942Z,32.35
2023-04-22T21:54:26.912Z,32.17
2023-04-22T21:56:53.781Z,32.72
2023-04-22T21:59:20.692Z,32.83
2023-04-22T22:01:47.505Z,32.92
2023-04-22T22:04:16.145Z,31.95
2023-04-22T22:06:44.918Z,32.40
2023-04-22T22:09:12.473Z,31.20
2023-04-22T22:11:39.424Z,30.15
2023-04-22T22:14:06.291Z,29.75
2023-04-22T22:16:33.604Z,27.33
2023-04-22T22:19:04.413Z,25.97
2023-04-22T22:21:33.089Z,29.58
2023-04-22T22:24:00.159Z,29.17
2023-04-22T22:26:27.824Z,28.85
2023-04-22T22:28:54.749Z,25.60
2023-04-22T22:31:21.577Z,27.43
2023-04-22T22:33:48.592Z,26.77
2023-04-22T22:36:16.062Z,25.88
2023-04-22T22:38:43.155Z,26.73
2023-04-22T22:41:10.039Z,23.67
2023-04-22T22:43:37.131Z,28.00
2023-04-22T22:46:04.229Z,28.42
2023-04-22T22:48:31.302Z,30.50
2023-04-22T22:50:58.232Z,27.98
2023-04-22T22:53:25.251Z,30.40
2023-04-22T22:55:52.204Z,31.97
2023-04-22T22:58:18.985Z,33.40
2023-04-22T23:00:45.831Z,30.25
2023-04-22T23:03:12.889Z,30.33
2023-04-22T23:05:39.828Z,32.78
2023-04-22T23:08:07.180Z,32.47
2023-04-22T23:10:33.968Z,31.60
2023-04-22T23:13:01.103Z,32.55
2023-04-22T23:15:28.015Z,33.40
2023-04-22T23:17:55.216Z,33.60
2023-04-22T23:20:23.672Z,33.50
2023-04-22T23:22:51.387Z,31.50
2023-04-22T23:25:18.400Z,34.05
2023-04-22T23:27:45.822Z,33.63
2023-04-22T23:30:13.142Z,32.63
2023-04-22T23:32:41.014Z,27.50
2023-04-22T23:35:10.712Z,32.67
2023-04-22T23:37:38.230Z,34.53
2023-04-22T23:40:06.952Z,31.85
2023-04-22T23:42:33.770Z,32.22
2023-04-22T23:45:00.566Z,34.67
2023-04-22T23:47:27.755Z,34.53
2023-04-22T23:49:54.687Z,33.25
2023-04-22T23:52:21.508Z,32.22
2023-04-22T23:54:49.840Z,34.10
2023-04-22T23:57:17.009Z,34.97
2023-04-22T23:59:44.546Z,30.35
